sensor_id;sensor_type;location;lat;lon;timestamp;pressure;altitude;pressure_sealevel;temperature;humidity
45991;BME280;31721;41.740;-88.000;2023-03-15T00:02:23;100028.40;;;3.12;28.53
45991;BME280;31721;41.740;-88.000;2023-03-15T00:04:52;100026.65;;;2.99;29.14
45991;BME280;31721;41.740;-88.000;2023-03-15T00:07:20;100022.43;;;2.95;29.03
45991;BME280;31721;41.740;-88.000;2023-03-15T00:09:48;100019.42;;;2.88;29.56
45991;BME280;31721;41.740;-88.000;2023-03-15T00:12:17;100015.38;;;2.86;29.69
45991;BME280;31721;41.740;-88.000;2023-03-15T00:14:44;100014.81;;;2.89;30.35
45991;BME280;31721;41.740;-88.000;2023-03-15T00:17:12;100015.69;;;2.74;30.00
45991;BME280;31721;41.740;-88.000;2023-03-15T00:19:41;100019.97;;;2.66;30.19
45991;BME280;31721;41.740;-88.000;2023-03-15T00:22:10;100017.66;;;2.57;30.20
45991;BME280;31721;41.740;-88.000;2023-03-15T00:24:38;100013.95;;;2.52;30.41
45991;BME280;31721;41.740;-88.000;2023-03-15T00:27:06;100013.75;;;2.65;31.09
45991;BME280;31721;41.740;-88.000;2023-03-15T00:29:35;100016.14;;;2.56;31.06
45991;BME280;31721;41.740;-88.000;2023-03-15T00:32:03;100018.18;;;2.44;30.83
45991;BME280;31721;41.740;-88.000;2023-03-15T00:34:32;100019.28;;;2.27;30.95
45991;BME280;31721;41.740;-88.000;2023-03-15T00:37:00;100019.73;;;2.15;31.12
45991;BME280;31721;41.740;-88.000;2023-03-15T00:39:29;100024.49;;;2.14;31.27
45991;BME280;31721;41.740;-88.000;2023-03-15T00:41:57;100028.55;;;2.08;31.39
45991;BME280;31721;41.740;-88.000;2023-03-15T00:44:25;100028.00;;;2.02;31.40
45991;BME280;31721;41.740;-88.000;2023-03-15T00:46:53;100024.87;;;2.05;31.63
45991;BME280;31721;41.740;-88.000;2023-03-15T00:49:22;100027.74;;;1.91;31.87
45991;BME280;31721;41.740;-88.000;2023-03-15T00:51:50;100030.59;;;1.95;31.92
45991;BME280;31721;41.740;-88.000;2023-03-15T00:54:20;100032.22;;;1.81;32.21
45991;BME280;31721;41.740;-88.000;2023-03-15T00:56:49;100031.49;;;1.76;32.25
45991;BME280;31721;41.740;-88.000;2023-03-15T00:59:17;100032.67;;;1.74;32.51
45991;BME280;31721;41.740;-88.000;2023-03-15T01:01:46;100033.35;;;1.71;32.56
45991;BME280;31721;41.740;-88.000;2023-03-15T01:04:14;100033.67;;;1.66;32.67
45991;BME280;31721;41.740;-88.000;2023-03-15T01:06:43;100041.57;;;1.57;32.91
45991;BME280;31721;41.740;-88.000;2023-03-15T01:09:11;100045.60;;;1.54;33.04
45991;BME280;31721;41.740;-88.000;2023-03-15T01:11:40;100041.97;;;1.48;33.22
45991;BME280;31721;41.740;-88.000;2023-03-15T01:14:08;100037.92;;;1.39;33.13
45991;BME280;31721;41.740;-88.000;2023-03-15T01:16:37;100033.97;;;1.36;33.37
45991;BME280;31721;41.740;-88.000;2023-03-15T01:19:05;100031.70;;;1.32;33.61
45991;BME280;31721;41.740;-88.000;2023-03-15T01:21:33;100030.45;;;1.20;33.63
45991;BME280;31721;41.740;-88.000;2023-03-15T01:24:01;100031.65;;;1.32;33.81
45991;BME280;31721;41.740;-88.000;2023-03-15T01:26:30;100036.40;;;1.21;33.81
45991;BME280;31721;41.740;-88.000;2023-03-15T01:28:58;100041.48;;;1.13;33.78
45991;BME280;31721;41.740;-88.000;2023-03-15T01:31:28;100046.77;;;1.12;34.05
45991;BME280;31721;41.740;-88.000;2023-03-15T01:33:56;100053.95;;;1.07;34.14
45991;BME280;31721;41.740;-88.000;2023-03-15T01:36:25;100058.99;;;1.02;34.31
45991;BME280;31721;41.740;-88.000;2023-03-15T01:38:53;100058.81;;;0.90;34.31
45991;BME280;31721;41.740;-88.000;2023-03-15T01:41:21;100057.68;;;0.95;34.60
45991;BME280;31721;41.740;-88.000;2023-03-15T01:43:50;100053.34;;;0.92;34.65
45991;BME280;31721;41.740;-88.000;2023-03-15T01:46:22;100051.36;;;0.95;34.82
45991;BME280;31721;41.740;-88.000;2023-03-15T01:48:56;100054.17;;;0.82;34.94
45991;BME280;31721;41.740;-88.000;2023-03-15T01:51:30;100055.96;;;0.86;35.16
45991;BME280;31721;41.740;-88.000;2023-03-15T01:54:03;100060.05;;;0.87;35.00
45991;BME280;31721;41.740;-88.000;2023-03-15T01:56:34;100059.81;;;0.68;35.25
45991;BME280;31721;41.740;-88.000;2023-03-15T01:59:06;100060.50;;;0.78;35.22
45991;BME280;31721;41.740;-88.000;2023-03-15T02:01:37;100065.99;;;0.68;35.30
45991;BME280;31721;41.740;-88.000;2023-03-15T02:04:08;100064.95;;;0.75;35.52
45991;BME280;31721;41.740;-88.000;2023-03-15T02:06:37;100061.11;;;0.54;35.49
45991;BME280;31721;41.740;-88.000;2023-03-15T02:09:08;100055.67;;;0.47;35.53
45991;BME280;31721;41.740;-88.000;2023-03-15T02:11:37;100054.92;;;0.59;35.71
45991;BME280;31721;41.740;-88.000;2023-03-15T02:14:05;100059.63;;;0.59;35.82
45991;BME280;31721;41.740;-88.000;2023-03-15T02:16:35;100061.22;;;0.49;35.89
45991;BME280;31721;41.740;-88.000;2023-03-15T02:19:05;100057.10;;;0.53;36.07
45991;BME280;31721;41.740;-88.000;2023-03-15T02:21:42;100055.70;;;0.49;36.23
45991;BME280;31721;41.740;-88.000;2023-03-15T02:24:21;100052.53;;;0.47;36.45
45991;BME280;31721;41.740;-88.000;2023-03-15T02:26:53;100052.61;;;0.35;36.41
45991;BME280;31721;41.740;-88.000;2023-03-15T02:29:24;100050.94;;;0.40;36.71
45991;BME280;31721;41.740;-88.000;2023-03-15T02:31:53;100055.59;;;0.36;36.71
45991;BME280;31721;41.740;-88.000;2023-03-15T02:34:22;100058.67;;;0.33;36.71
45991;BME280;31721;41.740;-88.000;2023-03-15T02:36:51;100055.94;;;0.29;36.89
45991;BME280;31721;41.740;-88.000;2023-03-15T02:39:20;100054.04;;;0.31;36.89
45991;BME280;31721;41.740;-88.000;2023-03-15T02:41:52;100055.29;;;0.20;36.96
45991;BME280;31721;41.740;-88.000;2023-03-15T02:44:25;100062.57;;;0.18;37.08
45991;BME280;31721;41.740;-88.000;2023-03-15T02:46:56;100064.82;;;0.15;37.19
45991;BME280;31721;41.740;-88.000;2023-03-15T02:49:29;100066.94;;;0.20;37.22
45991;BME280;31721;41.740;-88.000;2023-03-15T02:51:58;100067.58;;;0.17;37.21
45991;BME280;31721;41.740;-88.000;2023-03-15T02:54:26;100067.97;;;0.14;37.31
45991;BME280;31721;41.740;-88.000;2023-03-15T02:56:54;100064.98;;;0.03;37.46
45991;BME280;31721;41.740;-88.000;2023-03-15T02:59:23;100059.57;;;-0.01;37.48
45991;BME280;31721;41.740;-88.000;2023-03-15T03:01:52;100064.36;;;0.02;37.54
45991;BME280;31721;41.740;-88.000;2023-03-15T03:04:21;100062.72;;;-0.02;37.63
45991;BME280;31721;41.740;-88.000;2023-03-15T03:06:49;100061.45;;;0.03;37.61
45991;BME280;31721;41.740;-88.000;2023-03-15T03:09:18;100058.54;;;-0.00;37.79
45991;BME280;31721;41.740;-88.000;2023-03-15T03:11:46;100058.74;;;-0.17;37.91
45991;BME280;31721;41.740;-88.000;2023-03-15T03:14:14;100058.71;;;-0.21;37.94
45991;BME280;31721;41.740;-88.000;2023-03-15T03:16:42;100059.28;;;-0.26;37.92
45991;BME280;31721;41.740;-88.000;2023-03-15T03:19:11;100062.31;;;-0.27;38.21
45991;BME280;31721;41.740;-88.000;2023-03-15T03:21:40;100065.69;;;-0.22;38.26
45991;BME280;31721;41.740;-88.000;2023-03-15T03:24:08;100068.91;;;-0.26;38.17
45991;BME280;31721;41.740;-88.000;2023-03-15T03:26:37;100072.97;;;-0.46;38.27
45991;BME280;31721;41.740;-88.000;2023-03-15T03:29:05;100073.75;;;-0.36;38.46
45991;BME280;31721;41.740;-88.000;2023-03-15T03:31:33;100073.56;;;-0.39;38.66
45991;BME280;31721;41.740;-88.000;2023-03-15T03:34:01;100072.70;;;-0.51;38.60
45991;BME280;31721;41.740;-88.000;2023-03-15T03:36:28;100069.10;;;-0.46;38.91
45991;BME280;31721;41.740;-88.000;2023-03-15T03:38:56;100063.51;;;-0.51;38.69
45991;BME280;31721;41.740;-88.000;2023-03-15T03:41:24;100056.57;;;-0.62;38.70
45991;BME280;31721;41.740;-88.000;2023-03-15T03:43:52;100059.12;;;-0.57;38.81
45991;BME280;31721;41.740;-88.000;2023-03-15T03:46:21;100061.17;;;-0.61;38.84
45991;BME280;31721;41.740;-88.000;2023-03-15T03:48:49;100059.06;;;-0.66;39.08
45991;BME280;31721;41.740;-88.000;2023-03-15T03:51:17;100053.98;;;-0.67;39.23
45991;BME280;31721;41.740;-88.000;2023-03-15T03:53:46;100049.16;;;-0.72;39.31
45991;BME280;31721;41.740;-88.000;2023-03-15T03:56:14;100047.91;;;-0.75;39.46
45991;BME280;31721;41.740;-88.000;2023-03-15T03:58:42;100049.47;;;-0.77;39.45
45991;BME280;31721;41.740;-88.000;2023-03-15T04:01:09;100052.65;;;-0.83;39.39
45991;BME280;31721;41.740;-88.000;2023-03-15T04:03:38;100047.57;;;-0.94;39.39
45991;BME280;31721;41.740;-88.000;2023-03-15T04:06:06;100048.26;;;-0.96;39.72
45991;BME280;31721;41.740;-88.000;2023-03-15T04:08:35;100046.70;;;-0.99;39.77
45991;BME280;31721;41.740;-88.000;2023-03-15T04:11:03;100050.34;;;-1.00;39.76
45991;BME280;31721;41.740;-88.000;2023-03-15T04:13:32;100054.70;;;-1.08;39.81
45991;BME280;31721;41.740;-88.000;2023-03-15T04:15:59;100054.32;;;-1.13;39.72
45991;BME280;31721;41.740;-88.000;2023-03-15T04:18:28;100055.03;;;-1.15;40.14
45991;BME280;31721;41.740;-88.000;2023-03-15T04:20:56;100061.58;;;-1.13;40.34
45991;BME280;31721;41.740;-88.000;2023-03-15T04:23:24;100058.37;;;-1.21;40.32
45991;BME280;31721;41.740;-88.000;2023-03-15T04:25:53;100050.18;;;-1.19;40.49
45991;BME280;31721;41.740;-88.000;2023-03-15T04:28:21;100046.39;;;-1.19;40.45
45991;BME280;31721;41.740;-88.000;2023-03-15T04:30:49;100048.02;;;-1.27;40.43
45991;BME280;31721;41.740;-88.000;2023-03-15T04:33:17;100048.11;;;-1.30;40.73
45991;BME280;31721;41.740;-88.000;2023-03-15T04:35:45;100051.20;;;-1.31;40.82
45991;BME280;31721;41.740;-88.000;2023-03-15T04:38:12;100051.80;;;-1.18;40.97
45991;BME280;31721;41.740;-88.000;2023-03-15T04:40:41;100051.68;;;-1.42;40.86
45991;BME280;31721;41.740;-88.000;2023-03-15T04:43:09;100049.85;;;-1.40;41.00
45991;BME280;31721;41.740;-88.000;2023-03-15T04:45:37;100040.28;;;-1.50;41.18
45991;BME280;31721;41.740;-88.000;2023-03-15T04:48:06;100041.59;;;-1.40;41.20
45991;BME280;31721;41.740;-88.000;2023-03-15T04:50:34;100039.14;;;-1.51;41.34
45991;BME280;31721;41.740;-88.000;2023-03-15T04:53:02;100035.31;;;-1.52;41.30
45991;BME280;31721;41.740;-88.000;2023-03-15T04:55:29;100031.57;;;-1.46;41.23
45991;BME280;31721;41.740;-88.000;2023-03-15T04:57:58;100028.47;;;-1.42;41.31
45991;BME280;31721;41.740;-88.000;2023-03-15T05:00:26;100027.67;;;-1.44;41.38
45991;BME280;31721;41.740;-88.000;2023-03-15T05:02:54;100019.98;;;-1.54;41.45
45991;BME280;31721;41.740;-88.000;2023-03-15T05:05:22;100017.20;;;-1.67;41.60
45991;BME280;31721;41.740;-88.000;2023-03-15T05:07:50;100015.10;;;-1.64;41.75
45991;BME280;31721;41.740;-88.000;2023-03-15T05:10:18;100005.47;;;-1.55;41.97
45991;BME280;31721;41.740;-88.000;2023-03-15T05:12:46;100000.94;;;-1.58;42.05
45991;BME280;31721;41.740;-88.000;2023-03-15T05:15:13;100002.95;;;-1.59;41.86
45991;BME280;31721;41.740;-88.000;2023-03-15T05:17:41;100006.94;;;-1.63;41.91
45991;BME280;31721;41.740;-88.000;2023-03-15T05:20:10;100006.95;;;-1.74;42.03
45991;BME280;31721;41.740;-88.000;2023-03-15T05:22:39;100001.75;;;-1.76;42.17
45991;BME280;31721;41.740;-88.000;2023-03-15T05:25:09;100001.65;;;-1.74;42.04
45991;BME280;31721;41.740;-88.000;2023-03-15T05:27:37;100004.98;;;-1.82;42.23
45991;BME280;31721;41.740;-88.000;2023-03-15T05:30:07;100008.86;;;-1.80;42.19
45991;BME280;31721;41.740;-88.000;2023-03-15T05:32:35;100013.88;;;-1.81;42.34
45991;BME280;31721;41.740;-88.000;2023-03-15T05:35:04;100014.80;;;-1.83;42.32
45991;BME280;31721;41.740;-88.000;2023-03-15T05:37:33;100014.31;;;-1.80;42.31
45991;BME280;31721;41.740;-88.000;2023-03-15T05:40:00;100018.05;;;-1.93;42.52
45991;BME280;31721;41.740;-88.000;2023-03-15T05:42:29;100017.59;;;-1.89;42.46
45991;BME280;31721;41.740;-88.000;2023-03-15T05:44:57;100017.92;;;-1.91;42.49
45991;BME280;31721;41.740;-88.000;2023-03-15T05:47:25;100020.35;;;-2.01;42.58
45991;BME280;31721;41.740;-88.000;2023-03-15T05:49:53;100018.88;;;-1.93;42.55
45991;BME280;31721;41.740;-88.000;2023-03-15T05:52:21;100009.26;;;-1.96;42.53
45991;BME280;31721;41.740;-88.000;2023-03-15T05:54:50;99995.92;;;-2.06;42.63
45991;BME280;31721;41.740;-88.000;2023-03-15T05:57:18;99987.60;;;-2.01;42.84
45991;BME280;31721;41.740;-88.000;2023-03-15T05:59:45;99986.56;;;-2.11;42.90
45991;BME280;31721;41.740;-88.000;2023-03-15T06:02:13;99985.25;;;-2.08;43.00
45991;BME280;31721;41.740;-88.000;2023-03-15T06:04:41;99991.67;;;-2.13;43.07
45991;BME280;31721;41.740;-88.000;2023-03-15T06:07:10;99994.00;;;-2.10;43.27
45991;BME280;31721;41.740;-88.000;2023-03-15T06:09:38;99988.65;;;-2.06;43.11
45991;BME280;31721;41.740;-88.000;2023-03-15T06:12:06;99978.07;;;-2.14;43.05
45991;BME280;31721;41.740;-88.000;2023-03-15T06:14:34;99984.50;;;-2.18;43.04
45991;BME280;31721;41.740;-88.000;2023-03-15T06:17:02;99990.95;;;-2.27;42.96
45991;BME280;31721;41.740;-88.000;2023-03-15T06:19:30;99988.76;;;-2.31;43.07
45991;BME280;31721;41.740;-88.000;2023-03-15T06:21:57;99976.00;;;-2.37;43.06
45991;BME280;31721;41.740;-88.000;2023-03-15T06:24:25;99971.64;;;-2.36;43.41
45991;BME280;31721;41.740;-88.000;2023-03-15T06:26:53;99975.34;;;-2.36;43.42
45991;BME280;31721;41.740;-88.000;2023-03-15T06:29:20;99977.41;;;-2.40;43.53
45991;BME280;31721;41.740;-88.000;2023-03-15T06:31:48;99972.29;;;-2.43;43.58
45991;BME280;31721;41.740;-88.000;2023-03-15T06:34:17;99968.98;;;-2.39;43.74
45991;BME280;31721;41.740;-88.000;2023-03-15T06:36:45;99969.65;;;-2.42;43.72
45991;BME280;31721;41.740;-88.000;2023-03-15T06:39:13;99970.10;;;-2.51;43.54
45991;BME280;31721;41.740;-88.000;2023-03-15T06:41:41;99972.57;;;-2.51;43.89
45991;BME280;31721;41.740;-88.000;2023-03-15T06:44:09;99979.10;;;-2.51;43.94
45991;BME280;31721;41.740;-88.000;2023-03-15T06:46:37;99983.69;;;-2.50;43.95
45991;BME280;31721;41.740;-88.000;2023-03-15T06:49:05;99987.98;;;-2.45;43.94
45991;BME280;31721;41.740;-88.000;2023-03-15T06:51:33;99993.57;;;-2.44;44.09
45991;BME280;31721;41.740;-88.000;2023-03-15T06:54:01;99990.49;;;-2.47;43.90
45991;BME280;31721;41.740;-88.000;2023-03-15T06:56:29;99994.16;;;-2.55;43.82
45991;BME280;31721;41.740;-88.000;2023-03-15T06:58:57;99994.34;;;-2.58;43.95
45991;BME280;31721;41.740;-88.000;2023-03-15T07:01:25;99987.79;;;-2.50;43.92
45991;BME280;31721;41.740;-88.000;2023-03-15T07:03:53;99981.13;;;-2.59;43.92
45991;BME280;31721;41.740;-88.000;2023-03-15T07:06:20;99980.18;;;-2.60;44.06
45991;BME280;31721;41.740;-88.000;2023-03-15T07:08:48;99988.28;;;-2.55;44.03
45991;BME280;31721;41.740;-88.000;2023-03-15T07:11:16;99993.63;;;-2.57;43.99
45991;BME280;31721;41.740;-88.000;2023-03-15T07:13:44;99994.21;;;-2.67;43.97
45991;BME280;31721;41.740;-88.000;2023-03-15T07:16:12;99998.60;;;-2.65;44.05
45991;BME280;31721;41.740;-88.000;2023-03-15T07:18:40;100005.05;;;-2.59;43.94
45991;BME280;31721;41.740;-88.000;2023-03-15T07:21:08;100005.50;;;-2.62;44.16
45991;BME280;31721;41.740;-88.000;2023-03-15T07:23:36;100007.88;;;-2.62;44.27
45991;BME280;31721;41.740;-88.000;2023-03-15T07:26:04;100006.57;;;-2.73;44.31
45991;BME280;31721;41.740;-88.000;2023-03-15T07:28:32;100000.51;;;-2.70;43.97
45991;BME280;31721;41.740;-88.000;2023-03-15T07:31:02;100002.62;;;-2.76;44.22
45991;BME280;31721;41.740;-88.000;2023-03-15T07:33:31;100003.12;;;-2.74;44.33
45991;BME280;31721;41.740;-88.000;2023-03-15T07:36:00;99995.99;;;-2.74;44.46
45991;BME280;31721;41.740;-88.000;2023-03-15T07:38:29;99992.15;;;-2.70;44.33
45991;BME280;31721;41.740;-88.000;2023-03-15T07:41:00;99995.09;;;-2.70;44.43
45991;BME280;31721;41.740;-88.000;2023-03-15T07:43:28;99998.77;;;-2.69;44.53
45991;BME280;31721;41.740;-88.000;2023-03-15T07:45:56;99991.30;;;-2.91;44.33
45991;BME280;31721;41.740;-88.000;2023-03-15T07:48:23;99989.66;;;-2.85;44.45
45991;BME280;31721;41.740;-88.000;2023-03-15T07:50:51;99996.73;;;-2.89;44.64
45991;BME280;31721;41.740;-88.000;2023-03-15T07:53:19;100000.51;;;-2.81;44.77
45991;BME280;31721;41.740;-88.000;2023-03-15T07:55:48;99992.65;;;-2.80;44.87
45991;BME280;31721;41.740;-88.000;2023-03-15T07:58:16;99991.87;;;-2.70;44.81
45991;BME280;31721;41.740;-88.000;2023-03-15T08:00:43;99988.90;;;-2.84;44.82
45991;BME280;31721;41.740;-88.000;2023-03-15T08:03:10;99976.82;;;-2.88;44.70
45991;BME280;31721;41.740;-88.000;2023-03-15T08:05:39;99975.98;;;-2.88;44.89
45991;BME280;31721;41.740;-88.000;2023-03-15T08:08:06;99978.25;;;-2.89;45.02
45991;BME280;31721;41.740;-88.000;2023-03-15T08:10:34;99977.25;;;-2.88;45.03
45991;BME280;31721;41.740;-88.000;2023-03-15T08:13:02;99979.67;;;-3.01;44.72
45991;BME280;31721;41.740;-88.000;2023-03-15T08:15:30;99976.64;;;-2.85;45.11
45991;BME280;31721;41.740;-88.000;2023-03-15T08:17:58;99977.64;;;-2.91;45.01
45991;BME280;31721;41.740;-88.000;2023-03-15T08:20:26;99977.15;;;-3.03;44.83
45991;BME280;31721;41.740;-88.000;2023-03-15T08:22:54;99973.32;;;-2.98;45.13
45991;BME280;31721;41.740;-88.000;2023-03-15T08:25:23;99973.64;;;-2.98;45.11
45991;BME280;31721;41.740;-88.000;2023-03-15T08:27:51;99982.56;;;-2.91;45.18
45991;BME280;31721;41.740;-88.000;2023-03-15T08:30:20;99990.89;;;-2.94;45.09
45991;BME280;31721;41.740;-88.000;2023-03-15T08:32:49;99990.20;;;-3.04;45.09
45991;BME280;31721;41.740;-88.000;2023-03-15T08:35:19;99986.20;;;-3.12;45.03
45991;BME280;31721;41.740;-88.000;2023-03-15T08:37:49;99988.27;;;-3.01;45.22
45991;BME280;31721;41.740;-88.000;2023-03-15T08:40:19;99993.45;;;-3.00;45.08
45991;BME280;31721;41.740;-88.000;2023-03-15T08:42:47;99991.31;;;-3.00;45.12
45991;BME280;31721;41.740;-88.000;2023-03-15T08:45:15;99994.16;;;-3.14;45.05
45991;BME280;31721;41.740;-88.000;2023-03-15T08:47:42;99999.44;;;-3.17;45.02
45991;BME280;31721;41.740;-88.000;2023-03-15T08:50:13;99993.48;;;-3.19;44.93
45991;BME280;31721;41.740;-88.000;2023-03-15T08:52:42;99981.57;;;-3.18;45.09
45991;BME280;31721;41.740;-88.000;2023-03-15T08:55:10;99974.83;;;-3.19;45.18
45991;BME280;31721;41.740;-88.000;2023-03-15T08:57:39;99968.31;;;-3.15;45.08
45991;BME280;31721;41.740;-88.000;2023-03-15T09:00:09;99968.02;;;-3.24;45.15
45991;BME280;31721;41.740;-88.000;2023-03-15T09:02:37;99968.63;;;-3.27;45.29
45991;BME280;31721;41.740;-88.000;2023-03-15T09:05:05;99968.43;;;-3.30;45.37
45991;BME280;31721;41.740;-88.000;2023-03-15T09:07:32;99966.63;;;-3.33;45.30
45991;BME280;31721;41.740;-88.000;2023-03-15T09:10:00;99961.97;;;-3.35;45.41
45991;BME280;31721;41.740;-88.000;2023-03-15T09:12:27;99957.56;;;-3.37;45.55
45991;BME280;31721;41.740;-88.000;2023-03-15T09:14:55;99955.98;;;-3.41;45.31
45991;BME280;31721;41.740;-88.000;2023-03-15T09:17:23;99952.92;;;-3.38;45.54
45991;BME280;31721;41.740;-88.000;2023-03-15T09:19:51;99958.13;;;-3.36;45.59
45991;BME280;31721;41.740;-88.000;2023-03-15T09:22:19;99959.18;;;-3.35;45.58
45991;BME280;31721;41.740;-88.000;2023-03-15T09:24:46;99959.62;;;-3.38;45.57
45991;BME280;31721;41.740;-88.000;2023-03-15T09:27:14;99965.16;;;-3.34;45.51
45991;BME280;31721;41.740;-88.000;2023-03-15T09:29:42;99968.84;;;-3.34;45.52
45991;BME280;31721;41.740;-88.000;2023-03-15T09:32:09;99972.22;;;-3.36;45.49
45991;BME280;31721;41.740;-88.000;2023-03-15T09:34:37;99975.02;;;-3.37;45.59
45991;BME280;31721;41.740;-88.000;2023-03-15T09:37:06;99967.31;;;-3.39;45.28
45991;BME280;31721;41.740;-88.000;2023-03-15T09:39:33;99967.19;;;-3.41;45.37
45991;BME280;31721;41.740;-88.000;2023-03-15T09:42:02;99970.70;;;-3.35;45.65
45991;BME280;31721;41.740;-88.000;2023-03-15T09:44:37;99969.63;;;-3.38;45.47
45991;BME280;31721;41.740;-88.000;2023-03-15T09:47:17;99966.54;;;-3.43;45.57
45991;BME280;31721;41.740;-88.000;2023-03-15T09:49:50;99960.55;;;-3.39;45.70
45991;BME280;31721;41.740;-88.000;2023-03-15T09:52:29;99961.14;;;-3.36;45.83
45991;BME280;31721;41.740;-88.000;2023-03-15T09:55:04;99955.33;;;-3.40;45.75
45991;BME280;31721;41.740;-88.000;2023-03-15T09:57:42;99949.82;;;-3.40;45.70
45991;BME280;31721;41.740;-88.000;2023-03-15T10:00:16;99948.44;;;-3.43;45.75
45991;BME280;31721;41.740;-88.000;2023-03-15T10:02:54;99949.50;;;-3.43;45.83
45991;BME280;31721;41.740;-88.000;2023-03-15T10:05:30;99948.20;;;-3.50;45.94
45991;BME280;31721;41.740;-88.000;2023-03-15T10:07:58;99956.30;;;-3.42;46.00
45991;BME280;31721;41.740;-88.000;2023-03-15T10:10:31;99960.65;;;-3.43;46.06
45991;BME280;31721;41.740;-88.000;2023-03-15T10:13:07;99962.34;;;-3.47;46.02
45991;BME280;31721;41.740;-88.000;2023-03-15T10:15:46;99958.97;;;-3.52;45.96
45991;BME280;31721;41.740;-88.000;2023-03-15T10:18:25;99955.46;;;-3.41;46.14
45991;BME280;31721;41.740;-88.000;2023-03-15T10:21:04;99959.61;;;-3.47;46.25
45991;BME280;31721;41.740;-88.000;2023-03-15T10:23:38;99953.01;;;-3.54;45.97
45991;BME280;31721;41.740;-88.000;2023-03-15T10:26:11;99950.70;;;-3.51;46.20
45991;BME280;31721;41.740;-88.000;2023-03-15T10:28:41;99957.42;;;-3.52;46.25
45991;BME280;31721;41.740;-88.000;2023-03-15T10:31:14;99964.89;;;-3.53;46.31
45991;BME280;31721;41.740;-88.000;2023-03-15T10:33:42;99969.85;;;-3.55;46.27
45991;BME280;31721;41.740;-88.000;2023-03-15T10:36:15;99973.20;;;-3.53;46.27
45991;BME280;31721;41.740;-88.000;2023-03-15T10:38:43;99966.64;;;-3.59;46.10
45991;BME280;31721;41.740;-88.000;2023-03-15T10:41:12;99964.46;;;-3.58;46.36
45991;BME280;31721;41.740;-88.000;2023-03-15T10:43:40;99958.86;;;-3.56;46.36
45991;BME280;31721;41.740;-88.000;2023-03-15T10:46:23;99958.25;;;-3.66;46.33
45991;BME280;31721;41.740;-88.000;2023-03-15T10:48:56;99951.73;;;-3.49;46.41
45991;BME280;31721;41.740;-88.000;2023-03-15T10:51:26;99944.95;;;-3.59;46.46
45991;BME280;31721;41.740;-88.000;2023-03-15T10:53:57;99940.98;;;-3.56;46.51
45991;BME280;31721;41.740;-88.000;2023-03-15T10:56:28;99938.80;;;-3.57;46.44
45991;BME280;31721;41.740;-88.000;2023-03-15T10:58:57;99939.47;;;-3.47;46.45
45991;BME280;31721;41.740;-88.000;2023-03-15T11:01:28;99940.66;;;-3.47;46.39
45991;BME280;31721;41.740;-88.000;2023-03-15T11:04:28;99948.78;;;-3.64;46.48
45991;BME280;31721;41.740;-88.000;2023-03-15T11:07:00;99952.56;;;-3.48;46.60
45991;BME280;31721;41.740;-88.000;2023-03-15T11:09:39;99951.85;;;-3.57;46.50
45991;BME280;31721;41.740;-88.000;2023-03-15T11:12:08;99944.58;;;-3.57;46.61
45991;BME280;31721;41.740;-88.000;2023-03-15T11:14:39;99934.20;;;-3.40;46.59
45991;BME280;31721;41.740;-88.000;2023-03-15T11:17:15;99935.32;;;-3.55;46.73
45991;BME280;31721;41.740;-88.000;2023-03-15T11:19:52;99935.83;;;-3.52;46.84
45991;BME280;31721;41.740;-88.000;2023-03-15T11:22:20;99932.85;;;-3.55;46.75
45991;BME280;31721;41.740;-88.000;2023-03-15T11:24:48;99936.90;;;-3.53;46.80
45991;BME280;31721;41.740;-88.000;2023-03-15T11:27:20;99933.88;;;-3.53;46.83
45991;BME280;31721;41.740;-88.000;2023-03-15T11:29:51;99936.40;;;-3.46;46.84
45991;BME280;31721;41.740;-88.000;2023-03-15T11:32:23;99937.39;;;-3.80;47.55
45991;BME280;31721;41.740;-88.000;2023-03-15T11:34:56;99940.94;;;-3.75;46.87
45991;BME280;31721;41.740;-88.000;2023-03-15T11:37:31;99943.49;;;-3.61;46.85
45991;BME280;31721;41.740;-88.000;2023-03-15T11:40:04;99944.98;;;-3.56;46.97
45991;BME280;31721;41.740;-88.000;2023-03-15T11:42:43;99942.70;;;-3.52;46.84
45991;BME280;31721;41.740;-88.000;2023-03-15T11:45:18;99941.42;;;-3.50;46.82
45991;BME280;31721;41.740;-88.000;2023-03-15T11:47:51;99937.33;;;-3.57;46.88
45991;BME280;31721;41.740;-88.000;2023-03-15T11:50:20;99945.83;;;-3.44;46.85
45991;BME280;31721;41.740;-88.000;2023-03-15T11:52:49;99951.69;;;-3.53;46.93
45991;BME280;31721;41.740;-88.000;2023-03-15T11:55:21;99948.98;;;-3.41;46.91
45991;BME280;31721;41.740;-88.000;2023-03-15T11:57:50;99942.64;;;-3.51;46.77
45991;BME280;31721;41.740;-88.000;2023-03-15T12:00:25;99935.42;;;-3.51;46.92
45991;BME280;31721;41.740;-88.000;2023-03-15T12:03:34;99932.62;;;-3.38;47.10
45991;BME280;31721;41.740;-88.000;2023-03-15T12:06:12;99938.16;;;-3.34;47.00
45991;BME280;31721;41.740;-88.000;2023-03-15T12:09:00;99927.65;;;-3.42;46.98
45991;BME280;31721;41.740;-88.000;2023-03-15T12:11:43;99915.68;;;-3.41;46.95
45991;BME280;31721;41.740;-88.000;2023-03-15T12:14:44;99905.25;;;-3.31;47.11
45991;BME280;31721;41.740;-88.000;2023-03-15T12:17:48;99922.84;;;-3.37;47.25
45991;BME280;31721;41.740;-88.000;2023-03-15T12:20:20;99907.23;;;-3.36;47.14
45991;BME280;31721;41.740;-88.000;2023-03-15T12:23:03;99908.83;;;-3.26;47.24
45991;BME280;31721;41.740;-88.000;2023-03-15T12:25:38;99910.64;;;-3.25;47.28
45991;BME280;31721;41.740;-88.000;2023-03-15T12:28:19;99906.25;;;-3.43;47.09
45991;BME280;31721;41.740;-88.000;2023-03-15T12:30:53;99907.44;;;-3.39;47.48
45991;BME280;31721;41.740;-88.000;2023-03-15T12:33:22;99908.45;;;-3.36;47.36
45991;BME280;31721;41.740;-88.000;2023-03-15T12:35:58;99903.48;;;-3.37;47.51
45991;BME280;31721;41.740;-88.000;2023-03-15T12:38:35;99899.81;;;-3.74;47.91
45991;BME280;31721;41.740;-88.000;2023-03-15T12:41:08;99892.43;;;-3.74;47.85
45991;BME280;31721;41.740;-88.000;2023-03-15T12:43:38;99879.50;;;-3.44;47.75
45991;BME280;31721;41.740;-88.000;2023-03-15T12:46:06;99876.05;;;-3.45;47.64
45991;BME280;31721;41.740;-88.000;2023-03-15T12:48:34;99876.37;;;-3.41;47.80
45991;BME280;31721;41.740;-88.000;2023-03-15T12:51:06;99882.18;;;-3.26;47.79
45991;BME280;31721;41.740;-88.000;2023-03-15T12:53:43;99880.88;;;-3.28;47.92